首页
METAR-TAF:

METAR-TAF

机场 :

牛津, 英格兰

纬度: 51-50-13N, 经度: 1-19-12W, 海拔: 82米

当前天气观测

该预报发布于1小时和14分钟前的13:50 UTC
风速11节,风向东转东北,在北转东北东转东南之间变化
温度 23°C
湿度 38%
气压 1022 hPa
能见度10公里或以上
1500米以下无云,无积雨云

METAR: EGTK 011350Z 07011KT 020V110 CAVOK 23/08 Q1022

时间: 16:04 (15:04 UTC)

预报

该预报发布于1小时和7分钟前的13:57 UTC
预报有效从01日的 15点(UTC)到 01日的 18点(UTC)
风速9节,风向东转东北
能见度10公里或以上
1500米以下无云,无积雨云

TAF: EGTK 011357Z 0115/0118 06009KT CAVOK

超过4000个机场的气象观测和天气预报(METAR&TAF报告)。

可查询的气象台以黄色和红色小点在地图上表示。

将鼠标移到小点上方,可查看气象台名称。

然后点击查看天气观测和预报。

如需切换地图:点击带黑十字的绿色按钮放大地图;点击带横线的绿色按钮缩小地图;或者点击绿色箭头查看邻近地区的地图。


METAR-TAF: